Time;durP1;ratioP1;P1;durP2;ratioP2;P2;SDS_P1;SDS_P2;PMS_P1;PMS_P2;Temp;Humidity;BMP_temperature;BMP_pressure;BME280_temperature;BME280_humidity;BME280_pressure;Samples;Min_cycle;Max_cycle;Signal;HPM_P1;HPM_P2
2022/08/11 00:00:14;;;;;;;3.67;1.85;;;23.00;99.90;;;;;;10299376;28;20296;-79
2022/08/11 00:05:19;;;;;;;3.08;1.55;;;23.00;99.90;;;;;;10293789;28;20714;-79
2022/08/11 00:10:24;;;;;;;4.13;1.88;;;23.10;99.90;;;;;;10326396;28;20236;-79
2022/08/11 00:15:41;;;;;;;2.50;1.80;;;23.00;99.90;;;;;;10330974;28;20256;-79
2022/08/11 00:20:44;;;;;;;3.00;1.70;;;23.00;99.90;;;;;;10332054;28;20251;-79
2022/08/11 00:25:53;;;;;;;2.00;1.63;;;23.00;99.90;;;;;;10331705;28;20233;-79
2022/08/11 00:30:58;;;;;;;2.90;1.75;;;23.00;99.90;;;;;;10310195;28;20216;-79
2022/08/11 00:36:07;;;;;;;2.08;1.48;;;23.00;99.90;;;;;;10327006;28;20265;-79
2022/08/11 00:41:54;;;;;;;3.95;2.40;;;23.00;99.90;;;;;;10291908;28;20797;-79
2022/08/11 00:47:39;;;;;;;3.30;1.90;;;23.00;99.90;;;;;;10301672;28;20255;-79
2022/08/11 00:53:19;;;;;;;2.78;2.22;;;22.90;99.90;;;;;;10280646;28;20237;-79
2022/08/11 00:58:27;;;;;;;1.85;1.70;;;23.00;99.90;;;;;;10313090;28;20259;-79
2022/08/11 01:03:48;;;;;;;4.53;2.20;;;22.90;99.90;;;;;;10328834;28;20323;-79
2022/08/11 01:08:56;;;;;;;2.35;1.92;;;22.90;99.90;;;;;;10307758;28;20280;-79
2022/08/11 01:14:25;;;;;;;4.82;1.90;;;22.90;99.90;;;;;;10318027;28;20240;-79
2022/08/11 01:19:54;;;;;;;2.75;1.80;;;22.90;99.90;;;;;;10330595;28;20244;-79
2022/08/11 01:25:26;;;;;;;2.88;1.52;;;22.90;99.90;;;;;;10295568;28;20229;-79
2022/08/11 01:30:47;;;;;;;1.63;1.52;;;22.90;99.90;;;;;;10288412;28;20249;-79
2022/08/11 01:35:58;;;;;;;3.72;1.63;;;22.90;99.90;;;;;;10301414;28;20284;-79
2022/08/11 01:44:36;;;;;;;2.20;1.98;;;23.00;99.90;;;;;;10317981;28;20261;-79
2022/08/11 01:47:49;;;;;;;2.53;1.52;;;22.90;99.90;;;;;;10289446;28;20310;-79
2022/08/11 01:53:09;;;;;;;3.33;1.83;;;22.90;99.90;;;;;;10305170;28;20240;-79
2022/08/11 01:58:32;;;;;;;2.33;1.50;;;22.90;99.90;;;;;;10310818;28;20279;-79
2022/08/11 02:03:58;;;;;;;2.03;1.80;;;22.90;99.90;;;;;;10296958;28;20269;-79
2022/08/11 02:09:46;;;;;;;2.60;1.83;;;22.90;99.90;;;;;;10319669;28;20192;-79
2022/08/11 02:15:36;;;;;;;2.85;2.03;;;22.90;99.90;;;;;;10309210;28;20225;-79
2022/08/11 02:26:23;;;;;;;3.95;1.42;;;22.80;99.90;;;;;;10288656;28;20272;-79
2022/08/11 02:37:33;;;;;;;2.13;1.77;;;22.80;99.90;;;;;;10291754;28;20252;-79
2022/08/11 02:42:45;;;;;;;2.38;2.13;;;22.80;99.90;;;;;;10326320;28;20248;-79
2022/08/11 02:53:20;;;;;;;2.22;2.03;;;22.80;99.90;;;;;;10320685;28;20298;-80
2022/08/11 03:04:36;;;;;;;1.67;1.40;;;22.80;99.90;;;;;;10286966;28;20303;-79
2022/08/11 03:09:48;;;;;;;2.45;2.25;;;22.70;99.90;;;;;;10327306;28;20224;-79
2022/08/11 03:20:41;;;;;;;1.98;1.70;;;;;;;;;;10288549;28;20244;-79
2022/08/11 03:26:14;;;;;;;2.38;1.83;;;22.70;99.90;;;;;;10309853;28;20237;-79
2022/08/11 03:31:23;;;;;;;1.98;1.77;;;22.70;99.90;;;;;;10325601;28;20247;-79
2022/08/11 03:36:42;;;;;;;2.55;1.75;;;22.70;99.90;;;;;;10316704;28;20344;-80
2022/08/11 03:42:23;;;;;;;1.98;1.70;;;22.70;99.90;;;;;;10325757;28;20730;-79
2022/08/11 03:47:42;;;;;;;2.88;2.05;;;22.70;99.90;;;;;;10315512;28;20255;-79
2022/08/11 03:53:15;;;;;;;2.20;1.98;;;22.70;99.90;;;;;;10325698;28;20611;-79
2022/08/11 03:58:30;;;;;;;2.00;1.70;;;22.70;99.90;;;;;;10304763;28;20206;-79
2022/08/11 04:03:42;;;;;;;2.17;1.70;;;22.70;99.90;;;;;;10303417;28;20612;-79
2022/08/11 04:09:12;;;;;;;1.92;1.83;;;22.70;99.90;;;;;;10310842;28;20225;-80
2022/08/11 04:20:31;;;;;;;2.35;1.88;;;22.70;99.90;;;;;;10293284;28;20296;-79
2022/08/11 04:26:16;;;;;;;1.77;1.63;;;22.70;99.90;;;;;;10322363;28;20740;-79
2022/08/11 04:31:43;;;;;;;2.05;1.77;;;22.70;99.90;;;;;;10322025;28;20228;-79
2022/08/11 04:37:33;;;;;;;2.90;1.98;;;22.80;99.90;;;;;;10330418;28;20738;-79
2022/08/11 05:05:56;;;;;;;2.22;1.60;;;22.80;99.90;;;;;;10319846;28;20229;-77
2022/08/11 05:11:23;;;;;;;2.75;1.83;;;22.80;99.90;;;;;;10310223;28;20244;-77
2022/08/11 06:00:13;;;;;;;3.78;3.33;;;22.90;99.90;;;;;;10323377;28;20232;-77
2022/08/11 06:05:16;;;;;;;5.47;3.08;;;22.90;99.90;;;;;;10306136;28;20291;-77
2022/08/11 06:10:33;;;;;;;3.78;2.85;;;22.90;99.90;;;;;;10287299;28;20771;-77
2022/08/11 06:15:51;;;;;;;5.38;3.28;;;22.90;99.90;;;;;;10287875;28;20280;-77
2022/08/11 06:20:56;;;;;;;8.75;3.65;;;23.00;99.90;;;;;;10294556;28;20248;-78
2022/08/11 06:25:59;;;;;;;3.45;3.15;;;23.10;99.90;;;;;;10285894;28;20233;-78
2022/08/11 06:31:17;;;;;;;3.95;3.08;;;23.10;99.90;;;;;;10297784;28;20287;-78
2022/08/11 06:36:38;;;;;;;3.10;2.80;;;23.10;99.90;;;;;;10303305;28;20272;-78
2022/08/11 06:42:07;;;;;;;5.13;2.70;;;23.10;99.90;;;;;;10296401;28;20256;-79
2022/08/11 06:47:19;;;;;;;2.58;2.38;;;23.20;99.90;;;;;;10323880;28;20241;-80
2022/08/11 06:52:30;;;;;;;2.70;2.40;;;23.30;99.90;;;;;;10326773;28;20301;-79
2022/08/11 07:03:15;;;;;;;4.57;3.10;;;23.40;99.90;;;;;;10345979;28;20274;-78
2022/08/11 07:30:18;;;;;;;3.63;2.65;;;23.70;99.90;;;;;;10302804;28;20245;-78
2022/08/11 07:35:30;;;;;;;4.82;2.67;;;23.80;99.90;;;;;;10325944;28;20718;-77
2022/08/11 07:40:34;;;;;;;3.03;2.42;;;23.70;99.90;;;;;;10331537;28;20645;-77
2022/08/11 07:56:27;;;;;;;3.88;2.72;;;23.80;99.90;;;;;;10327470;28;20237;-77
2022/08/11 08:18:03;;;;;;;5.68;2.70;;;24.10;99.90;;;;;;10329349;28;20240;-77
2022/08/11 08:23:32;;;;;;;3.17;2.63;;;24.10;99.90;;;;;;10327390;28;20302;-78
2022/08/11 08:28:35;;;;;;;3.28;2.33;;;24.20;99.90;;;;;;10318534;28;20279;-77
2022/08/11 08:33:41;;;;;;;3.00;2.53;;;24.20;99.90;;;;;;10331701;28;20260;-78
2022/08/11 08:38:48;;;;;;;3.67;2.42;;;24.30;99.90;;;;;;10329291;28;20694;-78
2022/08/11 08:43:57;;;;;;;3.83;2.35;;;24.40;99.90;;;;;;10328390;28;20279;-78
2022/08/11 08:49:26;;;;;;;2.15;1.92;;;24.60;99.50;;;;;;10323874;28;20282;-82
2022/08/11 08:54:36;;;;;;;3.65;2.78;;;24.50;99.20;;;;;;10329455;28;20614;-79
2022/08/11 08:59:43;;;;;;;4.32;2.60;;;24.50;99.90;;;;;;10300056;28;20292;-78
2022/08/11 09:04:51;;;;;;;2.58;2.22;;;24.50;99.90;;;;;;10290140;28;20715;-79
2022/08/11 09:09:57;;;;;;;4.65;2.88;;;24.70;99.90;;;;;;10291063;28;20284;-79
2022/08/11 09:15:04;;;;;;;2.40;2.20;;;24.60;99.90;;;;;;10289837;28;20237;-79
2022/08/11 09:20:32;;;;;;;7.15;2.45;;;24.70;99.90;;;;;;10289989;28;20229;-78
2022/08/11 09:31:00;;;;;;;15.27;3.13;;;24.90;96.90;;;;;;10288688;28;20765;-78
2022/08/11 09:40:27;;;;;;;8.55;2.80;;;25.10;97.30;;;;;;10289286;28;20307;-78
2022/08/11 09:41:26;;;;;;;4.93;2.30;;;24.80;97.30;;;;;;10326352;28;20314;-79
2022/08/11 09:46:49;;;;;;;3.35;2.10;;;24.90;95.90;;;;;;10324934;28;20260;-78
2022/08/11 09:51:54;;;;;;;2.60;1.90;;;24.70;99.60;;;;;;10325644;28;20220;-79
2022/08/11 10:02:29;;;;;;;5.00;2.28;;;25.10;98.50;;;;;;10324155;28;20943;-77
2022/08/11 10:07:32;;;;;;;4.75;2.15;;;25.00;99.30;;;;;;10321018;28;20233;-78
2022/08/11 10:12:45;;;;;;;2.53;2.17;;;25.10;98.10;;;;;;10289577;28;20245;-78
2022/08/11 10:28:35;;;;;;;10.05;2.33;;;25.60;93.80;;;;;;10308957;28;20668;-79
2022/08/11 10:34:02;;;;;;;3.40;2.60;;;25.60;94.90;;;;;;10296621;28;20289;-80
2022/08/11 10:39:05;;;;;;;4.10;2.63;;;25.20;95.80;;;;;;10320845;28;20268;-79
2022/08/11 10:44:09;;;;;;;2.45;2.15;;;25.10;96.00;;;;;;9958931;28;9999737;-79
2022/08/11 10:49:13;;;;;;;4.00;1.55;;;25.60;96.00;;;;;;10316408;28;20282;-80
2022/08/11 10:59:37;;;;;;;3.75;1.98;;;25.30;94.80;;;;;;10314597;28;20244;-86
2022/08/11 11:04:54;;;;;;;4.03;2.42;;;24.90;95.10;;;;;;10286237;28;20261;-80
2022/08/11 11:10:01;;;;;;;7.85;2.00;;;25.00;94.80;;;;;;10282888;28;20244;-79
2022/08/11 11:20:32;;;;;;;3.38;1.98;;;25.10;95.70;;;;;;10283191;28;20233;-79
2022/08/11 11:26:05;;;;;;;4.95;2.63;;;25.30;91.00;;;;;;10285271;28;20257;-79
2022/08/11 11:31:26;;;;;;;3.05;1.63;;;25.30;94.10;;;;;;10282808;28;20713;-81
2022/08/11 11:36:48;;;;;;;2.53;1.65;;;25.80;91.50;;;;;;10299677;28;20699;-80
2022/08/11 11:41:53;;;;;;;2.40;2.00;;;26.10;92.60;;;;;;10318521;28;20256;-79
2022/08/11 11:46:57;;;;;;;3.08;2.30;;;25.60;93.60;;;;;;10312438;28;20961;-80
2022/08/11 11:52:01;;;;;;;2.58;1.67;;;25.40;93.80;;;;;;10323390;28;20282;-79
2022/08/11 12:02:28;;;;;;;2.05;1.52;;;25.70;93.20;;;;;;10312282;28;20703;-80
2022/08/11 12:18:36;;;;;;;2.63;1.80;;;25.90;92.60;;;;;;10302768;28;20233;-80
2022/08/11 12:29:09;;;;;;;3.13;2.22;;;25.50;93.00;;;;;;10330089;28;20228;-80
2022/08/11 12:34:14;;;;;;;2.67;2.08;;;25.00;94.00;;;;;;10323055;28;20292;-80
2022/08/11 12:45:26;;;;;;;1.70;1.55;;;24.60;91.30;;;;;;10322672;28;20685;-78
2022/08/11 13:06:39;;;;;;;3.75;1.88;;;25.50;92.40;;;;;;10324334;28;20594;-79
2022/08/11 13:17:21;;;;;;;2.42;1.98;;;25.40;91.90;;;;;;10317230;28;20732;-79
2022/08/11 13:22:46;;;;;;;2.55;2.05;;;25.60;91.80;;;;;;10323260;28;20291;-78
2022/08/11 13:27:54;;;;;;;2.67;1.90;;;25.10;90.40;;;;;;10299620;28;20237;-79
2022/08/11 13:33:03;;;;;;;2.40;1.75;;;25.00;92.20;;;;;;10287919;28;20288;-79
2022/08/11 13:38:06;;;;;;;2.97;2.00;;;25.00;92.20;;;;;;10295094;28;20272;-79
2022/08/11 13:43:21;;;;;;;3.03;1.92;;;25.50;91.40;;;;;;10328169;28;20255;-79
2022/08/11 13:48:24;;;;;;;1.90;1.60;;;25.50;90.80;;;;;;10301373;28;20229;-80
2022/08/11 13:53:29;;;;;;;3.95;1.67;;;26.00;88.30;;;;;;10320051;28;20844;-79
2022/08/11 13:58:32;;;;;;;1.90;1.73;;;25.90;79.00;;;;;;10291431;28;20236;-78
2022/08/11 14:03:43;;;;;;;5.05;1.45;;;25.60;90.30;;;;;;10325133;28;20287;-78
2022/08/11 14:09:10;;;;;;;2.65;1.60;;;25.60;86.70;;;;;;10324565;28;20232;-78
2022/08/11 14:14:20;;;;;;;3.83;2.05;;;25.10;88.40;;;;;;10318767;28;20677;-77
2022/08/11 14:19:25;;;;;;;3.50;1.95;;;24.80;93.50;;;;;;10325707;28;20287;-78
2022/08/11 14:24:28;;;;;;;1.83;1.65;;;24.90;91.90;;;;;;10322566;28;20252;-78
2022/08/11 14:29:33;;;;;;;4.63;1.60;;;25.00;91.40;;;;;;10325856;28;20670;-78
2022/08/11 14:34:50;;;;;;;3.25;1.85;;;25.70;79.50;;;;;;10323723;28;20306;-77
2022/08/11 14:39:57;;;;;;;3.42;1.80;;;25.90;81.40;;;;;;10326155;28;20375;-79
2022/08/11 14:50:58;;;;;;;2.42;1.98;;;25.60;82.90;;;;;;10314228;28;20789;-77
2022/08/11 15:06:46;;;;;;;3.97;3.00;;;25.20;83.10;;;;;;10291490;28;20280;-78
2022/08/11 15:12:15;;;;;;;3.78;1.92;;;25.90;71.80;;;;;;10323841;28;20363;-78
2022/08/11 15:17:35;;;;;;;2.65;2.38;;;;;;;;;;10321685;28;20279;-78
2022/08/11 15:39:05;;;;;;;9.40;2.00;;;25.30;86.00;;;;;;10283303;28;20957;-78
2022/08/11 15:49:55;;;;;;;3.83;1.80;;;25.40;80.90;;;;;;10341515;28;20261;-78
2022/08/11 15:55:15;;;;;;;2.75;1.75;;;25.40;85.70;;;;;;10317045;28;20263;-79
2022/08/11 16:05:42;;;;;;;2.35;1.70;;;25.30;88.60;;;;;;10296475;28;20237;-80
2022/08/11 16:10:56;;;;;;;15.73;2.60;;;25.10;89.20;;;;;;10306473;28;20229;-80
2022/08/11 16:16:22;;;;;;;2.90;2.05;;;25.10;89.30;;;;;;10292066;28;20640;-80
2022/08/11 16:21:26;;;;;;;1.70;1.60;;;25.10;89.70;;;;;;10314188;28;20232;-80
2022/08/11 16:26:40;;;;;;;3.53;2.58;;;25.00;90.30;;;;;;10305510;28;20404;-80
2022/08/11 16:32:17;;;;;;;3.75;2.10;;;25.00;90.40;;;;;;9979028;28;10000142;-79
2022/08/11 16:48:13;;;;;;;1.85;1.70;;;24.70;91.00;;;;;;10305398;28;20233;-80
2022/08/11 16:53:38;;;;;;;3.25;2.22;;;24.60;91.60;;;;;;10290421;28;20299;-81
2022/08/11 16:59:14;;;;;;;2.33;2.13;;;24.70;91.50;;;;;;10320495;28;20294;-83
2022/08/11 17:16:10;;;;;;;2.38;2.17;;;24.60;91.80;;;;;;10299749;28;20229;-80
2022/08/11 17:21:19;;;;;;;4.93;1.92;;;24.50;92.00;;;;;;10292341;28;20256;-80
2022/08/11 17:26:57;;;;;;;2.97;1.95;;;24.40;92.20;;;;;;10318382;28;20253;-80
2022/08/11 17:37:31;;;;;;;6.28;1.83;;;24.30;93.00;;;;;;10316234;28;20843;-80
2022/08/11 18:04:33;;;;;;;13.27;2.17;;;23.40;94.20;;;;;;10278338;28;20669;-80
